Volgo-don 159 — VD159 — position and weather

sailwx.info

Track history (hours):
 
Tides and Currents Weather Stations Pressure Air Temp Water Temp Dewpoint Dewpoint Depression Visibility Wind Speed Wind Dir Waves Ship Positions

Volgo-don 159

Last reported at 2018-Jun-09 03:27 UTC. Time now 2018-Jun-25 05:59 UTC.
Position N 59°48' E 030°38'.
Warning: this ship's position is 16 days out of date.

Length 138 m; draft 2.4 m.

Type: Cargo ship. MMSI: 273344210.

Date/timePositionNaut miles runAvg speedWind from/ knotsBaromVisibWave heightAir tempDewpointWater temp
2018-Jun-09 03:27N 59°48' E 030°38'3 4.2
2018-Jun-09 02:47N 59°50' E 030°34'1 3.1
2018-Jun-09 02:28N 59°50' E 030°32'2 4.3
2018-Jun-09 02:00N 59°51' E 030°30'2 4.1
2018-Jun-09 01:30N 59°53' E 030°27'2 3.7
2018-Jun-09 01:00N 59°55' E 030°25'1 2.7
2018-Jun-09 00:30N 59°56' E 030°24'0 0.0
2018-Jun-09 00:01N 59°56' E 030°24'1 2.7
2018-Jun-08 23:30N 59°57' E 030°24'3 5.1
2018-Jun-08 23:00N 59°57' E 030°19'3 5.2
2018-Jun-08 22:29N 59°55' E 030°15'2 4.3
2018-Jun-08 21:59N 59°53' E 030°13'0 0.0
2018-Jun-08 18:43N 59°53' E 030°13'0 0.0
2018-Jun-08 17:30N 59°53' E 030°13'0 0.0
2018-Jun-08 15:41N 59°53' E 030°13'0 0.0
2018-Jun-08 15:24N 59°53' E 030°13'0 0.0
2018-Jun-07 23:10N 59°53' E 030°12'0 0.0
2018-Jun-07 22:51N 59°53' E 030°12'0 0.0
2018-Jun-07 19:11N 59°53' E 030°12'0 0.0
2018-Jun-07 18:57N 59°53' E 030°12'0 0.0
2018-Jun-07 05:06N 59°53' E 030°13'0 0.0
2018-Jun-07 04:58N 59°53' E 030°13'0 0.0
2018-Jun-07 03:03N 59°53' E 030°13'0 0.0
2018-Jun-07 02:50N 59°53' E 030°13'0 0.0
2018-Jun-07 02:29N 59°53' E 030°13'0 0.0
2018-Jun-07 01:46N 59°53' E 030°13'0 0.1
2018-Jun-07 01:30N 59°53' E 030°13'2 3.6
2018-Jun-07 01:00N 59°55' E 030°14'4 7.3
2018-Jun-07 00:30N 59°57' E 030°20'2 4.8
2018-Jun-07 00:00N 59°55' E 030°24'4 7.7
2018-Jun-06 23:30N 59°52' E 030°28'3 1.1
2018-Jun-06 21:06N 59°50' E 030°31'0 0.0
2018-Jun-06 20:41N 59°50' E 030°31'0 0.0
2018-Jun-06 15:20N 59°50' E 030°31'0 0.0
2018-Jun-06 13:00N 59°50' E 030°31'0 0.0
2018-Jun-06 11:53N 59°50' E 030°31'0 0.2
2018-Jun-06 11:27N 59°50' E 030°31'1 1.7
2018-Jun-06 10:58N 59°50' E 030°33'  
Track history (hours):
 
Tides and Currents Weather Stations Pressure Air Temp Water Temp Dewpoint Dewpoint Depression Visibility Wind Speed Wind Dir Waves Ship Positions

Volgo-don 159

Last reported at 2018-Jun-09 03:27 UTC. Time now 2018-Jun-25 05:59 UTC.
Position N 59°48' E 030°38'.
Warning: this ship's position is 16 days out of date.

Length 138 m; draft 2.4 m.

Type: Cargo ship. MMSI: 273344210.

Date/timePositionNaut miles runAvg speedWind from/ knotsBaromVisibWave heightAir tempDewpointWater temp
2018-Jun-09 03:27N 59°48' E 030°38'3 4.2
2018-Jun-09 02:47N 59°50' E 030°34'1 3.1
2018-Jun-09 02:28N 59°50' E 030°32'2 4.3
2018-Jun-09 02:00N 59°51' E 030°30'2 4.1
2018-Jun-09 01:30N 59°53' E 030°27'2 3.7
2018-Jun-09 01:00N 59°55' E 030°25'1 2.7
2018-Jun-09 00:30N 59°56' E 030°24'0 0.0
2018-Jun-09 00:01N 59°56' E 030°24'1 2.7
2018-Jun-08 23:30N 59°57' E 030°24'3 5.1
2018-Jun-08 23:00N 59°57' E 030°19'3 5.2
2018-Jun-08 22:29N 59°55' E 030°15'2 4.3
2018-Jun-08 21:59N 59°53' E 030°13'0 0.0
2018-Jun-08 18:43N 59°53' E 030°13'0 0.0
2018-Jun-08 17:30N 59°53' E 030°13'0 0.0
2018-Jun-08 15:41N 59°53' E 030°13'0 0.0
2018-Jun-08 15:24N 59°53' E 030°13'0 0.0
2018-Jun-07 23:10N 59°53' E 030°12'0 0.0
2018-Jun-07 22:51N 59°53' E 030°12'0 0.0
2018-Jun-07 19:11N 59°53' E 030°12'0 0.0
2018-Jun-07 18:57N 59°53' E 030°12'0 0.0
2018-Jun-07 05:06N 59°53' E 030°13'0 0.0
2018-Jun-07 04:58N 59°53' E 030°13'0 0.0
2018-Jun-07 03:03N 59°53' E 030°13'0 0.0
2018-Jun-07 02:50N 59°53' E 030°13'0 0.0
2018-Jun-07 02:29N 59°53' E 030°13'0 0.0
2018-Jun-07 01:46N 59°53' E 030°13'0 0.1
2018-Jun-07 01:30N 59°53' E 030°13'2 3.6
2018-Jun-07 01:00N 59°55' E 030°14'4 7.3
2018-Jun-07 00:30N 59°57' E 030°20'2 4.8
2018-Jun-07 00:00N 59°55' E 030°24'4 7.7
2018-Jun-06 23:30N 59°52' E 030°28'3 1.1
2018-Jun-06 21:06N 59°50' E 030°31'0 0.0
2018-Jun-06 20:41N 59°50' E 030°31'0 0.0
2018-Jun-06 15:20N 59°50' E 030°31'0 0.0
2018-Jun-06 13:00N 59°50' E 030°31'0 0.0
2018-Jun-06 11:53N 59°50' E 030°31'0 0.2
2018-Jun-06 11:27N 59°50' E 030°31'1 1.7
2018-Jun-06 10:58N 59°50' E 030°33'  

Dump ship's entire track history